Time;durP1;ratioP1;P1;durP2;ratioP2;P2;SDS_P1;SDS_P2;PMS_P1;PMS_P2;Temp;Humidity;BMP_temperature;BMP_pressure;BME280_temperature;BME280_humidity;BME280_pressure;Samples;Min_cycle;Max_cycle;Signal;HPM_P1;HPM_P2
2023/06/11 00:01:24;;;;;;;11.70;7.93;;;;;;;21.00;57.20;101354.63;4951138;29;20038;-84
2023/06/11 00:03:52;;;;;;;10.98;8.18;;;;;;;20.95;57.16;101338.53;4951031;29;20491;-84
2023/06/11 00:06:20;;;;;;;10.43;8.50;;;;;;;20.89;57.47;101339.22;4931280;29;20039;-84
2023/06/11 00:08:46;;;;;;;14.57;9.13;;;;;;;20.81;58.48;101339.16;4932855;29;20399;-84
2023/06/11 00:11:11;;;;;;;13.68;8.60;;;;;;;20.78;57.62;101332.06;4930802;29;20035;-84
2023/06/11 00:13:37;;;;;;;10.50;8.30;;;;;;;20.73;58.43;101339.13;4936096;29;20039;-84
2023/06/11 00:16:02;;;;;;;11.90;9.35;;;;;;;20.70;59.24;101339.44;4967723;28;20019;-84
2023/06/11 00:18:27;;;;;;;10.38;8.77;;;;;;;20.60;59.42;101329.38;4952024;28;20043;-84
2023/06/11 00:20:53;;;;;;;15.50;8.75;;;;;;;20.59;59.31;101335.06;4951583;28;20503;-84
2023/06/11 00:23:18;;;;;;;12.02;8.40;;;;;;;20.54;59.06;101337.47;4950739;29;20502;-84
2023/06/11 00:25:44;;;;;;;10.90;8.60;;;;;;;20.50;58.96;101325.00;4949111;28;20177;-84
2023/06/11 00:28:09;;;;;;;14.93;9.27;;;;;;;20.47;59.03;101328.97;4950431;28;20035;-84
2023/06/11 00:30:34;;;;;;;10.93;8.98;;;;;;;20.44;59.33;101332.03;4950918;28;20103;-84
2023/06/11 00:33:00;;;;;;;15.65;9.43;;;;;;;20.38;60.57;101335.44;4949799;28;20039;-85
2023/06/11 00:35:26;;;;;;;11.73;9.27;;;;;;;20.30;61.62;101330.72;4966323;28;21070;-84
2023/06/11 00:37:52;;;;;;;12.07;9.68;;;;;;;20.22;60.30;101330.66;4951667;28;20094;-84
2023/06/11 00:40:17;;;;;;;12.10;9.65;;;;;;;20.18;60.97;101329.25;4949610;28;20038;-84
2023/06/11 00:42:45;;;;;;;15.18;9.30;;;;;;;20.13;61.22;101332.50;4950880;28;20090;-83
2023/06/11 00:45:11;;;;;;;12.18;8.65;;;;;;;20.12;61.24;101333.53;4951501;28;20027;-84
2023/06/11 00:47:38;;;;;;;15.18;9.27;;;;;;;20.07;61.38;101324.00;4952101;29;20397;-84
2023/06/11 00:50:05;;;;;;;12.35;8.98;;;;;;;20.06;60.75;101325.03;4947154;29;20179;-84
2023/06/11 00:52:31;;;;;;;14.95;9.05;;;;;;;20.01;61.09;101325.53;4947555;29;20403;-84
2023/06/11 00:54:56;;;;;;;16.75;10.25;;;;;;;19.94;62.64;101324.41;4965065;28;20063;-84
2023/06/11 00:57:24;;;;;;;11.55;9.30;;;;;;;19.87;61.94;101328.84;4949270;29;20062;-84
2023/06/11 00:59:53;;;;;;;12.48;9.70;;;;;;;19.86;62.18;101338.16;4933798;29;20023;-84
2023/06/11 01:02:26;;;;;;;13.68;9.52;;;;;;;19.80;62.30;101334.13;4949527;29;20043;-83
2023/06/11 01:04:56;;;;;;;11.45;9.80;;;;;;;19.76;62.88;101335.47;4965459;28;20137;-84
2023/06/11 01:07:24;;;;;;;11.45;8.75;;;;;;;19.71;62.90;101332.31;4966181;28;20039;-84
2023/06/11 01:09:50;;;;;;;11.50;9.50;;;;;;;19.66;63.18;101329.19;4964758;28;20044;-84
2023/06/11 01:12:16;;;;;;;14.20;10.30;;;;;;;19.66;62.77;101334.69;4949367;29;20027;-84
2023/06/11 01:14:42;;;;;;;10.73;9.60;;;;;;;19.61;62.94;101335.16;4964341;28;20043;-84
2023/06/11 01:17:34;;;;;;;13.85;10.02;;;;;;;19.54;64.25;101327.66;4949490;29;20538;-84
2023/06/11 01:20:14;;;;;;;12.40;10.30;;;;;;;19.52;63.07;101324.19;4965521;28;20035;-84
2023/06/11 01:22:54;;;;;;;13.20;9.50;;;;;;;19.50;64.08;101331.75;4949442;29;20082;-84
2023/06/11 01:25:38;;;;;;;14.75;10.10;;;;;;;19.42;64.53;101340.81;4948381;29;20110;-84
2023/06/11 01:28:07;;;;;;;14.90;10.65;;;;;;;19.34;65.12;101335.19;4948750;29;20139;-84
2023/06/11 01:30:36;;;;;;;12.73;11.27;;;;;;;19.28;64.92;101341.34;4948788;28;20105;-84
2023/06/11 01:33:03;;;;;;;12.65;10.10;;;;;;;19.23;65.08;101340.97;4950050;28;20035;-84
2023/06/11 01:35:33;;;;;;;14.80;10.63;;;;;;;19.20;65.65;101338.50;4949523;28;20133;-84
2023/06/11 01:38:02;;;;;;;14.25;11.07;;;;;;;19.13;65.36;101340.16;4964984;28;20407;-84
2023/06/11 01:40:36;;;;;;;16.08;11.18;;;;;;;19.07;65.45;101334.25;4949856;28;20046;-84
2023/06/11 01:43:04;;;;;;;13.73;11.68;;;;;;;19.08;66.78;101340.63;4948756;29;20495;-84
2023/06/11 01:45:32;;;;;;;18.02;11.52;;;;;;;18.98;66.90;101337.91;4964643;28;20058;-84
2023/06/11 01:47:58;;;;;;;15.52;11.25;;;;;;;18.94;66.91;101339.25;4949204;29;20519;-84
2023/06/11 01:50:24;;;;;;;15.55;11.85;;;;;;;18.92;66.86;101338.50;4950258;28;20073;-85
2023/06/11 01:52:49;;;;;;;15.85;12.02;;;;;;;18.89;68.38;101343.50;4948698;29;20023;-84
2023/06/11 01:55:15;;;;;;;13.38;10.88;;;;;;;18.82;67.19;101338.56;4948710;28;20068;-84
2023/06/11 01:57:41;;;;;;;15.00;11.77;;;;;;;18.83;66.82;101336.69;4947771;29;20086;-84
2023/06/11 02:00:10;;;;;;;15.27;12.02;;;;;;;18.80;68.19;101340.63;4947885;29;20035;-84
2023/06/11 02:02:44;;;;;;;14.80;11.85;;;;;;;18.79;67.41;101343.50;4949092;29;20047;-84
2023/06/11 02:05:10;;;;;;;12.90;11.27;;;;;;;18.77;67.74;101340.06;4964305;28;20035;-84
2023/06/11 02:07:36;;;;;;;17.23;12.55;;;;;;;18.66;68.36;101341.09;4965146;28;20023;-84
2023/06/11 02:10:01;;;;;;;16.55;11.95;;;;;;;18.66;67.99;101338.34;4949174;28;20074;-84
2023/06/11 02:12:28;;;;;;;16.40;12.27;;;;;;;18.63;67.72;101335.88;4947533;29;20102;-84
2023/06/11 02:14:54;;;;;;;17.55;12.00;;;;;;;18.65;67.99;101339.31;4945089;29;20131;-84
2023/06/11 02:17:20;;;;;;;16.92;12.30;;;;;;;18.60;68.00;101344.44;4945705;29;20114;-84
2023/06/11 02:19:45;;;;;;;13.60;11.98;;;;;;;18.60;68.19;101345.31;4932340;29;20120;-84
2023/06/11 02:22:10;;;;;;;14.90;11.63;;;;;;;18.57;68.64;101344.75;4950234;28;20102;-84
2023/06/11 02:24:36;;;;;;;14.70;12.23;;;;;;;18.58;68.16;101344.59;4948125;29;20387;-84
2023/06/11 02:27:01;;;;;;;16.73;12.82;;;;;;;18.46;68.82;101332.00;4948513;29;20086;-84
2023/06/11 02:29:27;;;;;;;20.75;13.70;;;;;;;18.48;69.06;101335.50;4946559;29;20035;-84
2023/06/11 02:31:52;;;;;;;13.90;12.50;;;;;;;18.42;68.79;101335.22;4959293;28;20031;-84
2023/06/11 02:34:18;;;;;;;17.58;13.30;;;;;;;18.40;69.27;101332.63;4949839;29;20423;-84
2023/06/11 02:36:43;;;;;;;15.43;13.55;;;;;;;18.32;69.54;101332.50;4947746;28;20062;-84
2023/06/11 02:39:08;;;;;;;15.88;12.80;;;;;;;18.32;69.67;101341.63;4947406;28;20384;-84
2023/06/11 02:41:34;;;;;;;16.27;13.68;;;;;;;18.27;70.05;101332.06;4949763;29;20023;-84
2023/06/11 02:44:00;;;;;;;17.77;13.68;;;;;;;18.22;69.64;101337.16;4948524;29;20102;-84
2023/06/11 02:46:25;;;;;;;17.38;13.38;;;;;;;18.17;71.10;101336.75;4949720;29;20526;-84
2023/06/11 02:48:51;;;;;;;17.88;12.60;;;;;;;18.15;71.51;101341.53;4948052;29;20455;-84
2023/06/11 02:51:16;;;;;;;14.48;12.23;;;;;;;18.16;70.26;101333.13;4949055;28;20114;-84
2023/06/11 02:53:42;;;;;;;18.50;13.07;;;;;;;18.12;69.81;101328.94;4948422;29;20032;-84
2023/06/11 02:56:07;;;;;;;21.17;14.07;;;;;;;18.12;70.93;101339.06;4947370;29;20045;-84
2023/06/11 02:58:33;;;;;;;20.23;14.40;;;;;;;18.06;71.55;101346.91;4948497;28;20034;-84
2023/06/11 03:00:58;;;;;;;16.50;13.65;;;;;;;18.02;71.69;101341.84;4962929;28;20031;-84
2023/06/11 03:03:23;;;;;;;17.83;13.13;;;;;;;17.96;70.82;101331.44;4964285;28;20062;-84
2023/06/11 03:05:50;;;;;;;20.90;13.70;;;;;;;18.00;71.04;101330.09;4962920;28;20094;-84
2023/06/11 03:08:16;;;;;;;17.42;13.82;;;;;;;18.00;71.19;101338.34;4947895;28;20031;-84
2023/06/11 03:10:41;;;;;;;19.00;15.02;;;;;;;17.93;71.75;101338.09;4947578;29;20121;-84
2023/06/11 03:13:07;;;;;;;17.40;13.88;;;;;;;17.90;71.76;101346.63;4947931;28;20127;-84
2023/06/11 03:15:33;;;;;;;14.98;13.32;;;;;;;17.84;71.40;101333.47;4931562;29;20050;-84
2023/06/11 03:17:58;;;;;;;15.80;13.68;;;;;;;17.87;70.88;101335.06;4948863;28;20482;-84
2023/06/11 03:20:24;;;;;;;16.98;13.13;;;;;;;17.87;71.22;101341.44;4942044;29;20118;-85
2023/06/11 03:22:50;;;;;;;17.25;14.13;;;;;;;17.83;73.24;101343.59;4943128;28;20145;-84
2023/06/11 03:25:16;;;;;;;17.13;13.95;;;;;;;17.81;72.09;101345.66;4930427;29;20082;-84
2023/06/11 03:27:42;;;;;;;16.55;14.75;;;;;;;17.78;72.22;101345.94;4961899;28;20250;-84
2023/06/11 03:30:07;;;;;;;17.75;13.27;;;;;;;17.75;71.97;101343.47;4945889;29;20129;-84
2023/06/11 03:32:35;;;;;;;16.38;13.93;;;;;;;17.73;72.76;101340.00;4963553;28;20047;-84
2023/06/11 03:35:01;;;;;;;17.83;14.70;;;;;;;17.74;72.26;101346.38;4962202;28;20031;-84
2023/06/11 03:37:26;;;;;;;19.08;14.02;;;;;;;17.77;72.50;101351.59;4930324;29;20031;-84
2023/06/11 03:39:55;;;;;;;19.45;13.70;;;;;;;17.73;73.64;101348.25;4946388;29;20475;-84
2023/06/11 03:42:22;;;;;;;16.48;14.52;;;;;;;17.62;74.91;101352.97;4944881;29;20057;-84
2023/06/11 03:44:49;;;;;;;18.98;14.20;;;;;;;17.51;74.23;101345.75;4945893;29;20039;-84
2023/06/11 03:47:16;;;;;;;19.30;14.13;;;;;;;17.52;74.15;101351.09;4945867;29;20039;-84
2023/06/11 03:49:41;;;;;;;15.95;13.65;;;;;;;17.58;74.33;101352.44;4946267;29;20453;-84
2023/06/11 03:52:07;;;;;;;16.58;13.43;;;;;;;17.59;73.69;101345.91;4950622;28;20031;-84
2023/06/11 03:54:33;;;;;;;17.85;14.57;;;;;;;17.66;73.60;101358.06;4962449;28;20051;-85
2023/06/11 03:56:58;;;;;;;17.70;14.38;;;;;;;17.65;74.30;101359.06;4962592;28;20046;-84
2023/06/11 03:59:24;;;;;;;17.95;14.73;;;;;;;17.63;74.02;101349.25;4945773;28;20075;-84
2023/06/11 04:01:49;;;;;;;17.08;14.85;;;;;;;17.66;74.09;101355.31;4950215;28;20089;-84
2023/06/11 04:04:15;;;;;;;17.77;14.13;;;;;;;17.61;74.60;101352.13;4963116;28;20150;-84
2023/06/11 04:06:42;;;;;;;18.10;14.85;;;;;;;17.62;75.23;101345.59;4971648;28;20053;-84
2023/06/11 04:09:09;;;;;;;17.13;14.13;;;;;;;17.64;74.56;101360.09;4950800;28;20038;-84
2023/06/11 04:11:34;;;;;;;18.60;14.23;;;;;;;17.64;74.40;101357.34;4967015;28;20051;-85
2023/06/11 04:14:00;;;;;;;18.23;15.13;;;;;;;17.69;74.70;101360.53;4975718;28;20054;-84
2023/06/11 04:16:26;;;;;;;19.58;15.70;;;;;;;17.70;73.92;101353.13;4950759;29;20031;-84
2023/06/11 04:18:52;;;;;;;21.65;15.50;;;;;;;17.75;74.57;101359.97;4934798;29;20035;-85
2023/06/11 04:21:17;;;;;;;19.45;15.18;;;;;;;17.78;73.46;101353.31;4949527;28;20491;-84
2023/06/11 04:23:43;;;;;;;19.58;15.95;;;;;;;17.80;73.55;101354.03;4934545;29;20081;-85
2023/06/11 04:26:10;;;;;;;22.63;17.30;;;;;;;17.87;73.61;101359.84;4965162;28;20138;-85
2023/06/11 04:28:38;;;;;;;23.00;16.63;;;;;;;17.93;73.90;101365.63;4965659;28;20502;-84
2023/06/11 04:31:06;;;;;;;23.40;16.95;;;;;;;17.91;73.78;101364.91;4950803;29;20035;-84
2023/06/11 04:33:36;;;;;;;21.42;16.95;;;;;;;17.98;73.43;101363.28;4967373;28;20482;-84
2023/06/11 04:36:10;;;;;;;24.50;18.02;;;;;;;17.98;73.79;101365.19;4957580;28;20043;-85
2023/06/11 04:38:38;;;;;;;26.45;18.20;;;;;;;18.06;74.68;101370.84;4946376;29;20036;-84
2023/06/11 04:41:05;;;;;;;23.10;17.52;;;;;;;18.09;73.90;101367.75;4931052;29;20488;-84
2023/06/11 04:43:36;;;;;;;24.40;17.08;;;;;;;18.13;74.57;101357.34;4948617;29;20553;-85
2023/06/11 04:46:03;;;;;;;26.30;18.80;;;;;;;18.14;75.30;101356.31;4966769;28;20039;-84
2023/06/11 04:48:32;;;;;;;22.17;17.20;;;;;;;18.19;73.91;101368.66;4950214;29;20032;-84
2023/06/11 04:51:00;;;;;;;27.63;18.60;;;;;;;18.22;73.73;101357.31;4949835;28;20503;-84
2023/06/11 04:53:29;;;;;;;27.42;17.80;;;;;;;18.30;73.86;101370.34;4933766;29;20194;-84
2023/06/11 04:55:57;;;;;;;23.40;17.85;;;;;;;18.31;74.43;101361.06;4949493;29;20125;-84
2023/06/11 04:58:27;;;;;;;27.33;17.90;;;;;;;18.38;74.89;101377.88;4949109;29;20365;-84
2023/06/11 05:00:57;;;;;;;24.25;17.98;;;;;;;18.41;74.69;101372.91;4949760;29;20027;-84
2023/06/11 05:03:29;;;;;;;26.65;20.00;;;;;;;18.45;75.16;101371.59;4949784;28;20062;-84
2023/06/11 05:05:55;;;;;;;26.25;19.65;;;;;;;18.47;75.54;101372.34;4950538;29;20035;-85
2023/06/11 05:08:25;;;;;;;27.88;18.38;;;;;;;18.47;74.44;101368.72;4965572;28;20035;-85
2023/06/11 05:10:52;;;;;;;27.15;19.58;;;;;;;18.57;76.02;101369.56;4949163;29;20106;-84
2023/06/11 05:13:24;;;;;;;24.33;21.58;;;;;;;18.60;75.66;101375.63;4957520;28;20039;-85
2023/06/11 05:15:56;;;;;;;25.48;19.23;;;;;;;18.65;74.41;101379.81;4930710;29;20585;-85
2023/06/11 05:18:25;;;;;;;26.50;20.35;;;;;;;18.70;75.53;101383.00;4924039;29;20120;-84
2023/06/11 05:20:51;;;;;;;24.88;20.60;;;;;;;18.74;75.02;101381.69;4949316;28;20031;-85
2023/06/11 05:23:21;;;;;;;26.95;20.38;;;;;;;18.81;76.17;101383.72;4949536;29;20038;-84
2023/06/11 05:25:47;;;;;;;24.55;20.00;;;;;;;18.85;76.07;101378.75;4948729;29;20051;-85
2023/06/11 05:28:15;;;;;;;23.15;19.88;;;;;;;18.95;74.93;101385.09;4948687;29;20110;-84
2023/06/11 05:30:45;;;;;;;25.90;17.95;;;;;;;19.02;73.66;101374.31;4949216;28;20069;-84
2023/06/11 05:33:16;;;;;;;23.77;17.65;;;;;;;19.10;73.23;101379.94;4949713;29;20435;-84
2023/06/11 05:35:43;;;;;;;27.15;19.20;;;;;;;19.13;73.61;101370.50;4949116;29;20039;-84
2023/06/11 05:38:09;;;;;;;23.85;18.33;;;;;;;19.18;73.84;101371.75;4932781;29;20035;-85
2023/06/11 05:40:37;;;;;;;23.02;17.60;;;;;;;19.29;72.60;101381.72;4949443;29;20035;-85
2023/06/11 05:43:03;;;;;;;21.67;17.88;;;;;;;19.29;72.97;101367.91;4957472;28;20052;-84
2023/06/11 05:45:33;;;;;;;21.00;16.67;;;;;;;19.40;72.25;101381.50;4948996;29;20035;-85
2023/06/11 05:48:00;;;;;;;22.35;17.67;;;;;;;19.47;72.26;101381.75;4959485;28;20098;-84
2023/06/11 05:50:28;;;;;;;24.27;16.05;;;;;;;19.54;70.99;101380.97;4948909;29;20051;-85
2023/06/11 05:52:53;;;;;;;20.88;16.75;;;;;;;19.59;71.18;101381.38;4948660;28;20463;-84
2023/06/11 05:55:19;;;;;;;21.25;17.45;;;;;;;19.67;70.80;101382.50;4947347;29;20035;-84
2023/06/11 05:57:45;;;;;;;19.67;16.48;;;;;;;19.74;70.14;101378.97;4946938;28;20102;-85
2023/06/11 06:00:12;;;;;;;22.33;16.90;;;;;;;19.81;71.90;101385.56;4947731;29;20035;-85
2023/06/11 06:02:49;;;;;;;23.27;17.55;;;;;;;19.86;70.42;101383.22;4948001;29;20050;-85
2023/06/11 06:05:22;;;;;;;22.60;17.83;;;;;;;19.96;70.50;101385.91;4932824;29;20035;-85
2023/06/11 06:07:48;;;;;;;22.70;17.65;;;;;;;20.02;70.30;101384.38;4948556;28;20043;-85
2023/06/11 06:10:14;;;;;;;21.90;17.60;;;;;;;20.11;70.27;101391.72;4950040;28;20032;-84
2023/06/11 06:12:40;;;;;;;18.85;16.45;;;;;;;20.16;70.59;101385.72;4950016;28;20165;-85
2023/06/11 06:15:06;;;;;;;26.92;16.33;;;;;;;20.25;71.19;101391.13;4964625;28;20144;-85
2023/06/11 06:17:32;;;;;;;23.35;16.70;;;;;;;20.32;70.52;101388.59;4949098;28;20031;-85
2023/06/11 06:19:58;;;;;;;21.83;16.58;;;;;;;20.39;70.45;101393.31;4964572;28;21053;-85
2023/06/11 06:22:23;;;;;;;19.83;14.77;;;;;;;20.48;69.35;101385.13;4947672;29;20039;-84
2023/06/11 06:24:49;;;;;;;17.95;14.73;;;;;;;20.51;69.72;101382.88;4962006;28;20027;-84
2023/06/11 06:27:15;;;;;;;16.38;14.10;;;;;;;20.62;68.38;101399.22;4947736;29;20071;-85
2023/06/11 06:29:41;;;;;;;18.65;14.85;;;;;;;20.69;68.41;101390.25;4947762;28;20027;-85
2023/06/11 06:32:08;;;;;;;19.38;14.02;;;;;;;20.80;68.51;101393.63;4964739;28;20038;-85
2023/06/11 06:34:34;;;;;;;17.95;14.05;;;;;;;20.88;69.08;101396.41;4945332;28;20039;-85
2023/06/11 06:37:00;;;;;;;15.82;13.00;;;;;;;20.98;68.01;101403.72;4950524;28;20038;-85
2023/06/11 06:39:27;;;;;;;21.80;12.48;;;;;;;21.02;68.38;101394.06;4964143;28;20461;-84
2023/06/11 06:41:53;;;;;;;14.57;11.93;;;;;;;21.11;65.74;101390.28;4959961;28;20102;-85
2023/06/11 06:44:21;;;;;;;17.65;11.32;;;;;;;21.18;66.90;101393.28;4956615;28;20447;-84
2023/06/11 06:46:47;;;;;;;13.43;10.35;;;;;;;21.27;66.93;101395.03;4963623;28;20038;-85
2023/06/11 06:49:13;;;;;;;16.15;11.18;;;;;;;21.37;65.92;101399.44;4949379;28;20443;-85
2023/06/11 06:51:38;;;;;;;13.05;11.02;;;;;;;21.41;65.29;101391.66;4963014;28;20115;-85
2023/06/11 06:54:05;;;;;;;10.98;9.80;;;;;;;21.49;65.14;101391.66;4964749;28;20035;-85
2023/06/11 06:56:30;;;;;;;12.13;10.75;;;;;;;21.59;65.31;101391.50;4962755;28;20038;-85
2023/06/11 06:58:56;;;;;;;11.25;10.15;;;;;;;21.63;66.17;101388.22;4946246;28;20036;-85
2023/06/11 07:01:21;;;;;;;13.20;10.38;;;;;;;21.74;65.81;101389.81;4948057;28;20491;-85
2023/06/11 07:03:47;;;;;;;11.75;10.60;;;;;;;21.83;64.95;101382.41;4956719;28;20086;-85
2023/06/11 07:06:12;;;;;;;13.98;10.40;;;;;;;21.96;64.49;101385.50;4965865;28;20039;-85
2023/06/11 07:08:39;;;;;;;16.45;10.15;;;;;;;22.04;63.62;101391.03;4955201;28;20118;-85
2023/06/11 07:11:04;;;;;;;16.13;9.63;;;;;;;22.10;64.54;101392.25;4946982;28;20037;-84
2023/06/11 07:13:43;;;;;;;14.30;10.68;;;;;;;22.19;63.79;101393.16;4969681;28;20033;-86
2023/06/11 07:16:10;;;;;;;11.63;9.95;;;;;;;22.27;63.76;101396.78;4955417;28;20035;-85
2023/06/11 07:18:38;;;;;;;15.13;9.80;;;;;;;22.38;63.30;101399.22;4962743;28;20220;-85
2023/06/11 07:21:03;;;;;;;13.02;9.73;;;;;;;22.46;63.55;101390.03;4967562;28;20046;-85
2023/06/11 07:23:29;;;;;;;14.07;10.32;;;;;;;22.54;62.64;101395.56;4964891;28;20032;-85
2023/06/11 07:25:55;;;;;;;12.00;10.00;;;;;;;22.63;62.96;101390.88;4950417;28;20058;-85
2023/06/11 07:28:23;;;;;;;13.05;10.05;;;;;;;22.76;63.33;101395.88;4946660;28;20082;-85
2023/06/11 07:30:50;;;;;;;12.52;10.00;;;;;;;22.81;61.14;101390.66;4931147;29;20034;-85
2023/06/11 07:33:18;;;;;;;12.98;9.85;;;;;;;22.90;62.63;101395.16;4949011;29;20044;-85
2023/06/11 07:35:46;;;;;;;12.52;9.07;;;;;;;22.99;61.56;101395.97;4932622;29;20474;-85
2023/06/11 07:38:12;;;;;;;13.20;9.60;;;;;;;23.09;61.92;101403.06;4959425;28;20030;-84
2023/06/11 07:40:38;;;;;;;11.27;10.05;;;;;;;23.13;62.59;101393.34;4951817;28;20110;-85
2023/06/11 07:43:03;;;;;;;11.93;9.25;;;;;;;23.24;61.20;101399.53;4934490;29;20466;-85
2023/06/11 07:45:30;;;;;;;12.52;9.63;;;;;;;23.31;60.51;101397.75;4934721;29;20119;-84
2023/06/11 07:47:55;;;;;;;10.50;9.27;;;;;;;23.42;62.65;101397.38;4966556;28;20035;-85
2023/06/11 07:50:20;;;;;;;10.27;8.88;;;;;;;23.54;61.56;101401.44;4945946;28;20774;-85
2023/06/11 07:52:46;;;;;;;9.60;8.65;;;;;;;23.66;60.07;101397.25;4951582;28;20118;-84
2023/06/11 07:55:18;;;;;;;12.05;9.30;;;;;;;23.81;60.66;101402.00;4942561;28;20035;-85
2023/06/11 07:57:44;;;;;;;13.85;9.48;;;;;;;23.89;58.02;101394.47;4945875;28;20407;-84
2023/06/11 08:00:12;;;;;;;10.82;9.30;;;;;;;24.02;59.13;101398.56;4949889;28;20113;-85
2023/06/11 08:02:41;;;;;;;11.10;8.93;;;;;;;24.22;60.44;101408.13;4949899;28;20039;-85
2023/06/11 08:05:10;;;;;;;11.18;8.90;;;;;;;24.47;60.02;101400.44;4948681;28;20038;-85
2023/06/11 08:07:35;;;;;;;10.77;9.07;;;;;;;24.72;58.75;101394.66;4949657;28;20082;-84
2023/06/11 08:10:00;;;;;;;11.75;9.43;;;;;;;25.05;56.69;101401.56;4960429;28;20102;-84
2023/06/11 08:12:26;;;;;;;10.70;9.35;;;;;;;25.50;55.80;101402.38;4947802;28;20339;-85
2023/06/11 08:14:51;;;;;;;10.02;8.55;;;;;;;26.19;53.92;101390.72;4949142;28;20031;-85
2023/06/11 08:17:16;;;;;;;10.93;8.32;;;;;;;26.74;53.27;101388.19;4933242;29;20134;-86
2023/06/11 08:19:42;;;;;;;10.55;8.18;;;;;;;27.51;53.50;101393.56;4945800;28;20472;-85
2023/06/11 08:22:07;;;;;;;10.30;8.02;;;;;;;28.04;50.70;101401.28;4945469;28;20051;-85
2023/06/11 08:24:33;;;;;;;10.80;8.05;;;;;;;28.37;46.82;101398.53;4949072;28;20087;-85
2023/06/11 08:26:58;;;;;;;15.13;8.15;;;;;;;28.82;46.93;101393.09;4956688;28;20074;-85
2023/06/11 08:29:23;;;;;;;54.35;10.23;;;;;;;29.41;46.54;101378.06;4948178;28;20090;-85
2023/06/11 08:31:49;;;;;;;15.18;8.30;;;;;;;29.57;45.21;101383.22;4933645;29;20475;-85
2023/06/11 08:34:14;;;;;;;11.80;7.80;;;;;;;29.79;44.72;101382.88;4933009;28;20078;-85
2023/06/11 08:36:43;;;;;;;9.73;7.78;;;;;;;30.10;43.06;101388.47;4945885;28;20494;-84
2023/06/11 08:39:09;;;;;;;9.35;7.60;;;;;;;30.13;42.29;101381.56;4944635;28;20055;-85
2023/06/11 08:41:36;;;;;;;11.60;7.60;;;;;;;30.25;42.26;101376.94;4948630;28;20068;-84
2023/06/11 08:44:01;;;;;;;10.20;7.88;;;;;;;30.32;44.28;101383.38;4947617;28;20122;-85
2023/06/11 08:46:32;;;;;;;9.20;8.10;;;;;;;30.34;41.41;101367.16;4949597;28;20106;-85
2023/06/11 08:49:02;;;;;;;9.82;7.30;;;;;;;30.81;42.47;101375.16;4926426;29;20039;-85
2023/06/11 08:51:37;;;;;;;11.70;7.65;;;;;;;31.14;41.99;101375.66;4946579;29;20035;-85
2023/06/11 08:54:06;;;;;;;11.23;7.13;;;;;;;31.48;39.29;101368.56;4950406;28;20122;-85
2023/06/11 08:56:32;;;;;;;8.70;7.03;;;;;;;31.54;40.99;101368.69;4953037;28;20479;-85
2023/06/11 08:59:00;;;;;;;10.40;6.63;;;;;;;31.62;40.02;101371.19;4963857;28;20050;-85
2023/06/11 09:01:26;;;;;;;9.70;6.88;;;;;;;32.07;39.29;101380.06;4964975;28;20403;-85
2023/06/11 09:03:51;;;;;;;10.13;7.60;;;;;;;32.14;38.58;101363.91;4930981;28;20035;-84
2023/06/11 09:06:18;;;;;;;8.65;7.38;;;;;;;32.51;39.55;101360.94;4948942;28;20047;-84
2023/06/11 09:08:43;;;;;;;8.57;7.00;;;;;;;32.58;38.40;101360.81;4967688;28;20106;-85
2023/06/11 09:11:08;;;;;;;9.77;7.05;;;;;;;32.93;38.63;101358.00;4935245;28;20110;-85
2023/06/11 09:13:34;;;;;;;9.52;6.88;;;;;;;32.96;36.18;101366.81;4942106;28;20040;-85
2023/06/11 09:16:00;;;;;;;9.95;6.85;;;;;;;32.84;35.57;101370.75;4964620;28;20063;-85
2023/06/11 09:18:26;;;;;;;9.82;7.22;;;;;;;33.08;36.03;101374.41;4948806;28;20023;-84
2023/06/11 09:20:53;;;;;;;8.25;6.78;;;;;;;32.82;35.80;101368.16;4930991;29;20035;-85
2023/06/11 09:23:32;;;;;;;7.85;6.80;;;;;;;32.82;36.02;101373.78;4950878;28;20446;-84
2023/06/11 09:26:01;;;;;;;8.77;7.15;;;;;;;32.59;36.02;101371.81;4929020;29;20070;-85
2023/06/11 09:28:34;;;;;;;12.63;6.70;;;;;;;32.70;37.40;101364.50;4929934;29;20043;-85
2023/06/11 09:31:02;;;;;;;8.90;6.80;;;;;;;32.69;36.64;101369.28;4949385;29;20043;-85
2023/06/11 09:33:29;;;;;;;9.98;6.90;;;;;;;32.63;35.92;101364.59;4950887;29;20042;-85
2023/06/11 09:35:55;;;;;;;8.52;7.25;;;;;;;32.65;36.55;101367.19;4965019;28;20045;-85
2023/06/11 09:38:21;;;;;;;10.93;7.15;;;;;;;32.92;36.38;101367.56;4949560;29;20039;-84
2023/06/11 09:40:48;;;;;;;8.63;7.78;;;;;;;33.12;36.47;101365.22;4950401;28;20086;-84
2023/06/11 09:43:17;;;;;;;8.82;7.32;;;;;;;33.36;35.96;101368.81;4949362;28;20329;-85
2023/06/11 09:45:43;;;;;;;175.93;15.98;;;;;;;33.58;36.38;101359.72;4949866;28;20118;-85
2023/06/11 09:48:12;;;;;;;12.52;6.90;;;;;;;33.61;35.44;101362.88;4965386;28;20122;-85
2023/06/11 09:50:38;;;;;;;12.05;7.30;;;;;;;33.49;34.20;101360.09;4949958;28;20194;-84
2023/06/11 09:53:05;;;;;;;10.82;6.85;;;;;;;33.55;36.53;101363.03;4950198;28;20066;-85
2023/06/11 09:55:34;;;;;;;12.35;6.80;;;;;;;33.87;36.86;101369.88;4933021;29;20023;-84
2023/06/11 09:58:01;;;;;;;10.13;7.18;;;;;;;33.79;33.71;101364.63;4950614;28;20044;-85
2023/06/11 10:00:26;;;;;;;7.57;6.22;;;;;;;34.12;34.32;101368.66;4932242;29;20130;-84
2023/06/11 10:02:52;;;;;;;8.52;6.03;;;;;;;34.51;33.99;101369.66;4931224;29;20479;-84
2023/06/11 10:05:17;;;;;;;11.98;6.57;;;;;;;34.35;32.61;101364.81;4938075;29;20027;-84
2023/06/11 10:07:52;;;;;;;7.25;6.32;;;;;;;34.35;33.85;101376.97;4949023;28;20043;-84
2023/06/11 10:10:22;;;;;;;8.25;6.38;;;;;;;34.13;32.02;101365.56;4966016;28;20557;-85
2023/06/11 10:12:49;;;;;;;7.07;6.13;;;;;;;33.99;32.71;101369.81;4983324;28;20031;-84
2023/06/11 10:15:16;;;;;;;7.25;6.05;;;;;;;33.96;31.73;101376.00;4954900;28;20039;-84
2023/06/11 10:17:59;;;;;;;100.00;11.10;;;;;;;34.24;32.49;101369.44;4964331;28;20089;-83
2023/06/11 10:20:35;;;;;;;10.35;6.03;;;;;;;34.22;32.23;101374.47;4948553;29;20043;-84
2023/06/11 10:23:09;;;;;;;7.78;6.07;;;;;;;34.34;31.28;101372.44;4932764;29;20035;-84
2023/06/11 10:25:37;;;;;;;11.23;5.78;;;;;;;34.43;31.76;101367.22;4948126;29;20101;-85
2023/06/11 10:28:03;;;;;;;9.20;5.93;;;;;;;34.20;31.32;101366.28;4960222;28;20611;-85
2023/06/11 10:30:29;;;;;;;7.43;6.25;;;;;;;34.37;31.87;101363.47;4946151;29;20122;-84
2023/06/11 10:32:56;;;;;;;7.07;5.82;;;;;;;34.60;30.43;101367.22;4964764;28;20137;-83
2023/06/11 10:35:28;;;;;;;98.18;10.93;;;;;;;34.43;29.56;101362.41;4948042;29;20023;-83
2023/06/11 10:38:10;;;;;;;10.98;6.07;;;;;;;34.65;31.33;101361.66;4964425;28;20121;-84
2023/06/11 10:40:36;;;;;;;;;;;;;;;34.92;30.89;101361.78;4950025;29;20043;-84
2023/06/11 10:43:04;;;;;;;559.92;43.60;;;;;;;34.85;32.57;101356.31;4949088;29;19964;-85
2023/06/11 10:45:36;;;;;;;27.35;6.75;;;;;;;34.78;30.47;101355.63;4951006;28;20047;-84
2023/06/11 10:48:02;;;;;;;32.25;7.30;;;;;;;34.82;31.55;101355.97;4944894;29;20027;-84
2023/06/11 10:50:31;;;;;;;12.20;6.50;;;;;;;34.75;30.44;101356.19;4934575;29;20522;-83
2023/06/11 10:53:03;;;;;;;9.68;6.10;;;;;;;34.80;30.85;101364.72;4948227;29;20039;-85
2023/06/11 10:55:30;;;;;;;11.20;6.40;;;;;;;34.98;31.33;101353.16;4947345;28;20046;-84
2023/06/11 10:58:00;;;;;;;8.10;5.80;;;;;;;35.15;30.09;101360.72;4964986;28;20022;-84
2023/06/11 11:00:32;;;;;;;6.93;5.68;;;;;;;34.82;30.42;101361.63;4951831;28;20035;-84
2023/06/11 11:02:59;;;;;;;8.55;6.80;;;;;;;34.91;30.54;101355.25;4964298;28;20043;-84
2023/06/11 11:05:28;;;;;;;25.98;6.22;;;;;;;34.83;29.00;101358.53;4961198;28;20091;-83
2023/06/11 11:07:54;;;;;;;6.05;5.20;;;;;;;34.82;29.49;101356.81;4949767;28;20058;-84
2023/06/11 11:10:24;;;;;;;8.60;5.95;;;;;;;35.26;29.30;101360.59;4948022;28;20051;-84
2023/06/11 11:12:49;;;;;;;7.93;5.47;;;;;;;35.07;28.42;101353.56;4967226;28;20035;-84
2023/06/11 11:15:15;;;;;;;8.98;5.28;;;;;;;35.31;30.07;101359.81;4951876;29;20142;-84